sensor_id;sensor_type;location;lat;lon;timestamp;P1;durP1;ratioP1;P2;durP2;ratioP2
12124;SDS011;6126;57.908;16.490;2023-01-26T00:01:11;1.73;;;1.27;;
12124;SDS011;6126;57.908;16.490;2023-01-26T00:03:44;1.65;;;1.40;;
12124;SDS011;6126;57.908;16.490;2023-01-26T00:06:12;1.48;;;1.17;;
12124;SDS011;6126;57.908;16.490;2023-01-26T00:08:42;2.30;;;1.83;;
12124;SDS011;6126;57.908;16.490;2023-01-26T00:11:14;2.80;;;1.52;;
12124;SDS011;6126;57.908;16.490;2023-01-26T00:13:43;1.92;;;1.30;;
12124;SDS011;6126;57.908;16.490;2023-01-26T00:16:13;1.98;;;1.45;;
12124;SDS011;6126;57.908;16.490;2023-01-26T00:18:39;1.73;;;1.50;;
12124;SDS011;6126;57.908;16.490;2023-01-26T00:21:07;2.25;;;1.80;;
12124;SDS011;6126;57.908;16.490;2023-01-26T00:23:38;2.30;;;1.45;;
12124;SDS011;6126;57.908;16.490;2023-01-26T00:26:07;1.95;;;1.30;;
12124;SDS011;6126;57.908;16.490;2023-01-26T00:28:37;1.42;;;1.20;;
12124;SDS011;6126;57.908;16.490;2023-01-26T00:31:06;1.48;;;1.10;;
12124;SDS011;6126;57.908;16.490;2023-01-26T00:33:37;1.40;;;1.10;;
12124;SDS011;6126;57.908;16.490;2023-01-26T00:36:03;1.25;;;1.15;;
12124;SDS011;6126;57.908;16.490;2023-01-26T00:38:30;1.42;;;1.30;;
12124;SDS011;6126;57.908;16.490;2023-01-26T00:40:56;2.00;;;1.13;;
12124;SDS011;6126;57.908;16.490;2023-01-26T00:43:22;1.95;;;1.30;;
12124;SDS011;6126;57.908;16.490;2023-01-26T00:45:48;1.20;;;1.10;;
12124;SDS011;6126;57.908;16.490;2023-01-26T00:48:14;1.02;;;0.95;;
12124;SDS011;6126;57.908;16.490;2023-01-26T00:50:40;1.60;;;0.73;;
12124;SDS011;6126;57.908;16.490;2023-01-26T00:53:06;2.40;;;1.23;;
12124;SDS011;6126;57.908;16.490;2023-01-26T00:55:32;1.38;;;0.82;;
12124;SDS011;6126;57.908;16.490;2023-01-26T00:57:59;1.00;;;0.90;;
12124;SDS011;6126;57.908;16.490;2023-01-26T01:00:27;1.15;;;0.70;;
12124;SDS011;6126;57.908;16.490;2023-01-26T01:02:53;1.00;;;0.93;;
12124;SDS011;6126;57.908;16.490;2023-01-26T01:05:21;1.08;;;0.70;;
12124;SDS011;6126;57.908;16.490;2023-01-26T01:07:47;2.50;;;1.05;;
12124;SDS011;6126;57.908;16.490;2023-01-26T01:10:13;0.50;;;0.50;;
12124;SDS011;6126;57.908;16.490;2023-01-26T01:12:40;0.93;;;0.75;;
12124;SDS011;6126;57.908;16.490;2023-01-26T01:15:06;0.60;;;0.60;;
12124;SDS011;6126;57.908;16.490;2023-01-26T01:17:33;0.63;;;0.60;;
12124;SDS011;6126;57.908;16.490;2023-01-26T01:20:03;0.77;;;0.75;;
12124;SDS011;6126;57.908;16.490;2023-01-26T01:22:32;0.50;;;0.50;;
12124;SDS011;6126;57.908;16.490;2023-01-26T01:24:59;1.10;;;0.70;;
12124;SDS011;6126;57.908;16.490;2023-01-26T01:27:25;0.60;;;0.60;;
12124;SDS011;6126;57.908;16.490;2023-01-26T01:29:50;0.85;;;0.70;;
12124;SDS011;6126;57.908;16.490;2023-01-26T01:32:17;0.60;;;0.60;;
12124;SDS011;6126;57.908;16.490;2023-01-26T01:34:45;0.68;;;0.68;;
12124;SDS011;6126;57.908;16.490;2023-01-26T01:37:12;0.75;;;0.75;;
12124;SDS011;6126;57.908;16.490;2023-01-26T01:39:38;0.80;;;0.80;;
12124;SDS011;6126;57.908;16.490;2023-01-26T01:42:04;0.60;;;0.60;;
12124;SDS011;6126;57.908;16.490;2023-01-26T01:44:33;0.75;;;0.70;;
12124;SDS011;6126;57.908;16.490;2023-01-26T01:47:21;0.50;;;0.50;;
12124;SDS011;6126;57.908;16.490;2023-01-26T01:49:52;0.70;;;0.70;;
12124;SDS011;6126;57.908;16.490;2023-01-26T01:52:21;0.60;;;0.60;;
12124;SDS011;6126;57.908;16.490;2023-01-26T01:55:01;0.90;;;0.75;;
12124;SDS011;6126;57.908;16.490;2023-01-26T01:57:37;0.65;;;0.60;;
12124;SDS011;6126;57.908;16.490;2023-01-26T02:00:11;0.52;;;0.40;;
12124;SDS011;6126;57.908;16.490;2023-01-26T02:02:44;0.63;;;0.63;;
12124;SDS011;6126;57.908;16.490;2023-01-26T02:05:38;0.75;;;0.57;;
12124;SDS011;6126;57.908;16.490;2023-01-26T02:08:28;0.68;;;0.68;;
12124;SDS011;6126;57.908;16.490;2023-01-26T02:11:01;0.70;;;0.52;;
12124;SDS011;6126;57.908;16.490;2023-01-26T02:13:34;0.68;;;0.50;;
12124;SDS011;6126;57.908;16.490;2023-01-26T02:16:02;0.52;;;0.52;;
12124;SDS011;6126;57.908;16.490;2023-01-26T02:18:29;0.57;;;0.57;;
12124;SDS011;6126;57.908;16.490;2023-01-26T02:20:56;0.80;;;0.73;;
12124;SDS011;6126;57.908;16.490;2023-01-26T02:23:39;0.85;;;0.60;;
12124;SDS011;6126;57.908;16.490;2023-01-26T02:26:14;0.70;;;0.70;;
12124;SDS011;6126;57.908;16.490;2023-01-26T02:28:44;0.50;;;0.50;;
12124;SDS011;6126;57.908;16.490;2023-01-26T02:31:11;1.10;;;0.68;;
12124;SDS011;6126;57.908;16.490;2023-01-26T02:33:38;0.57;;;0.57;;
12124;SDS011;6126;57.908;16.490;2023-01-26T02:36:05;0.55;;;0.55;;
12124;SDS011;6126;57.908;16.490;2023-01-26T02:38:44;0.90;;;0.70;;
12124;SDS011;6126;57.908;16.490;2023-01-26T02:41:39;0.68;;;0.52;;
12124;SDS011;6126;57.908;16.490;2023-01-26T02:44:24;0.70;;;0.50;;
12124;SDS011;6126;57.908;16.490;2023-01-26T02:46:52;0.77;;;0.60;;
12124;SDS011;6126;57.908;16.490;2023-01-26T02:49:18;0.65;;;0.65;;
12124;SDS011;6126;57.908;16.490;2023-01-26T02:52:05;0.50;;;0.50;;
12124;SDS011;6126;57.908;16.490;2023-01-26T02:54:32;0.73;;;0.73;;
12124;SDS011;6126;57.908;16.490;2023-01-26T02:57:16;0.55;;;0.50;;
12124;SDS011;6126;57.908;16.490;2023-01-26T02:59:42;0.88;;;0.70;;
12124;SDS011;6126;57.908;16.490;2023-01-26T03:02:08;0.68;;;0.50;;
12124;SDS011;6126;57.908;16.490;2023-01-26T03:04:34;1.00;;;0.60;;
12124;SDS011;6126;57.908;16.490;2023-01-26T03:07:00;0.43;;;0.43;;
12124;SDS011;6126;57.908;16.490;2023-01-26T03:09:26;0.57;;;0.40;;
12124;SDS011;6126;57.908;16.490;2023-01-26T03:11:52;0.43;;;0.40;;
12124;SDS011;6126;57.908;16.490;2023-01-26T03:14:18;0.60;;;0.60;;
12124;SDS011;6126;57.908;16.490;2023-01-26T03:16:44;0.63;;;0.63;;
12124;SDS011;6126;57.908;16.490;2023-01-26T03:19:11;0.60;;;0.60;;
12124;SDS011;6126;57.908;16.490;2023-01-26T03:21:57;0.55;;;0.50;;
12124;SDS011;6126;57.908;16.490;2023-01-26T03:24:43;0.60;;;0.60;;
12124;SDS011;6126;57.908;16.490;2023-01-26T03:27:33;0.55;;;0.55;;
12124;SDS011;6126;57.908;16.490;2023-01-26T03:30:05;0.35;;;0.35;;
12124;SDS011;6126;57.908;16.490;2023-01-26T03:32:32;0.75;;;0.75;;
12124;SDS011;6126;57.908;16.490;2023-01-26T03:34:58;0.90;;;0.40;;
12124;SDS011;6126;57.908;16.490;2023-01-26T03:37:24;0.70;;;0.60;;
12124;SDS011;6126;57.908;16.490;2023-01-26T03:39:50;0.52;;;0.52;;
12124;SDS011;6126;57.908;16.490;2023-01-26T03:42:35;0.55;;;0.47;;
12124;SDS011;6126;57.908;16.490;2023-01-26T03:45:20;0.40;;;0.40;;
12124;SDS011;6126;57.908;16.490;2023-01-26T03:48:06;0.50;;;0.50;;
12124;SDS011;6126;57.908;16.490;2023-01-26T03:50:53;0.43;;;0.43;;
12124;SDS011;6126;57.908;16.490;2023-01-26T03:53:38;0.50;;;0.40;;
12124;SDS011;6126;57.908;16.490;2023-01-26T03:56:22;0.75;;;0.75;;
12124;SDS011;6126;57.908;16.490;2023-01-26T03:58:50;0.40;;;0.40;;
12124;SDS011;6126;57.908;16.490;2023-01-26T04:01:22;0.68;;;0.57;;
12124;SDS011;6126;57.908;16.490;2023-01-26T04:03:52;0.40;;;0.40;;
12124;SDS011;6126;57.908;16.490;2023-01-26T04:06:40;0.40;;;0.40;;
12124;SDS011;6126;57.908;16.490;2023-01-26T04:09:27;0.40;;;0.40;;
12124;SDS011;6126;57.908;16.490;2023-01-26T04:11:53;0.65;;;0.50;;
12124;SDS011;6126;57.908;16.490;2023-01-26T04:14:19;0.50;;;0.50;;
12124;SDS011;6126;57.908;16.490;2023-01-26T04:17:04;0.50;;;0.50;;
12124;SDS011;6126;57.908;16.490;2023-01-26T04:19:48;0.40;;;0.40;;
12124;SDS011;6126;57.908;16.490;2023-01-26T04:22:38;0.55;;;0.50;;
12124;SDS011;6126;57.908;16.490;2023-01-26T04:25:13;0.47;;;0.47;;
12124;SDS011;6126;57.908;16.490;2023-01-26T04:27:42;1.00;;;0.65;;
12124;SDS011;6126;57.908;16.490;2023-01-26T04:30:10;0.65;;;0.65;;
12124;SDS011;6126;57.908;16.490;2023-01-26T04:32:39;0.75;;;0.65;;
12124;SDS011;6126;57.908;16.490;2023-01-26T04:35:05;0.50;;;0.50;;
12124;SDS011;6126;57.908;16.490;2023-01-26T04:37:33;0.50;;;0.50;;
12124;SDS011;6126;57.908;16.490;2023-01-26T04:39:59;1.00;;;0.90;;
12124;SDS011;6126;57.908;16.490;2023-01-26T04:42:25;0.50;;;0.50;;
12124;SDS011;6126;57.908;16.490;2023-01-26T04:44:52;0.52;;;0.52;;
12124;SDS011;6126;57.908;16.490;2023-01-26T04:47:19;0.45;;;0.45;;
12124;SDS011;6126;57.908;16.490;2023-01-26T04:49:45;0.50;;;0.50;;
12124;SDS011;6126;57.908;16.490;2023-01-26T04:52:12;0.55;;;0.55;;
12124;SDS011;6126;57.908;16.490;2023-01-26T04:54:38;0.40;;;0.40;;
12124;SDS011;6126;57.908;16.490;2023-01-26T04:57:05;0.80;;;0.70;;
12124;SDS011;6126;57.908;16.490;2023-01-26T04:59:32;0.98;;;0.80;;
12124;SDS011;6126;57.908;16.490;2023-01-26T05:01:58;0.60;;;0.60;;
12124;SDS011;6126;57.908;16.490;2023-01-26T05:04:24;1.15;;;0.80;;
12124;SDS011;6126;57.908;16.490;2023-01-26T05:06:50;0.70;;;0.70;;
12124;SDS011;6126;57.908;16.490;2023-01-26T05:09:16;0.65;;;0.65;;
12124;SDS011;6126;57.908;16.490;2023-01-26T05:11:42;0.40;;;0.40;;
12124;SDS011;6126;57.908;16.490;2023-01-26T05:14:08;0.68;;;0.68;;
12124;SDS011;6126;57.908;16.490;2023-01-26T05:16:34;0.88;;;0.75;;
12124;SDS011;6126;57.908;16.490;2023-01-26T05:19:00;0.50;;;0.50;;
12124;SDS011;6126;57.908;16.490;2023-01-26T05:21:26;0.90;;;0.60;;
12124;SDS011;6126;57.908;16.490;2023-01-26T05:23:52;0.50;;;0.50;;
12124;SDS011;6126;57.908;16.490;2023-01-26T05:26:19;0.60;;;0.55;;
12124;SDS011;6126;57.908;16.490;2023-01-26T05:28:45;1.15;;;0.57;;
12124;SDS011;6126;57.908;16.490;2023-01-26T05:31:11;0.68;;;0.68;;
12124;SDS011;6126;57.908;16.490;2023-01-26T05:33:36;0.50;;;0.50;;
12124;SDS011;6126;57.908;16.490;2023-01-26T05:36:03;0.70;;;0.68;;
12124;SDS011;6126;57.908;16.490;2023-01-26T05:38:31;0.50;;;0.50;;
12124;SDS011;6126;57.908;16.490;2023-01-26T05:40:58;0.50;;;0.50;;
12124;SDS011;6126;57.908;16.490;2023-01-26T05:43:24;0.90;;;0.57;;
12124;SDS011;6126;57.908;16.490;2023-01-26T05:45:50;0.65;;;0.60;;
12124;SDS011;6126;57.908;16.490;2023-01-26T05:48:16;0.43;;;0.43;;
12124;SDS011;6126;57.908;16.490;2023-01-26T05:50:42;0.57;;;0.57;;
12124;SDS011;6126;57.908;16.490;2023-01-26T05:53:08;0.80;;;0.50;;
12124;SDS011;6126;57.908;16.490;2023-01-26T05:55:34;0.77;;;0.52;;
12124;SDS011;6126;57.908;16.490;2023-01-26T05:58:00;0.50;;;0.45;;
12124;SDS011;6126;57.908;16.490;2023-01-26T06:00:26;0.70;;;0.70;;
12124;SDS011;6126;57.908;16.490;2023-01-26T06:02:52;0.40;;;0.40;;
12124;SDS011;6126;57.908;16.490;2023-01-26T06:05:17;0.50;;;0.50;;
12124;SDS011;6126;57.908;16.490;2023-01-26T06:07:44;0.55;;;0.55;;
12124;SDS011;6126;57.908;16.490;2023-01-26T06:10:10;0.63;;;0.60;;
12124;SDS011;6126;57.908;16.490;2023-01-26T06:12:36;0.57;;;0.57;;
12124;SDS011;6126;57.908;16.490;2023-01-26T06:15:03;0.73;;;0.50;;
12124;SDS011;6126;57.908;16.490;2023-01-26T06:17:30;1.20;;;0.80;;
12124;SDS011;6126;57.908;16.490;2023-01-26T06:19:56;0.82;;;0.80;;
12124;SDS011;6126;57.908;16.490;2023-01-26T06:22:22;0.95;;;0.80;;
12124;SDS011;6126;57.908;16.490;2023-01-26T06:24:49;0.60;;;0.60;;
12124;SDS011;6126;57.908;16.490;2023-01-26T06:27:15;0.82;;;0.80;;
12124;SDS011;6126;57.908;16.490;2023-01-26T06:29:42;0.75;;;0.68;;
12124;SDS011;6126;57.908;16.490;2023-01-26T06:32:10;1.08;;;0.98;;
12124;SDS011;6126;57.908;16.490;2023-01-26T06:34:37;0.50;;;0.50;;
12124;SDS011;6126;57.908;16.490;2023-01-26T06:37:03;1.02;;;0.95;;
12124;SDS011;6126;57.908;16.490;2023-01-26T06:39:29;1.77;;;0.57;;
12124;SDS011;6126;57.908;16.490;2023-01-26T06:41:55;0.85;;;0.63;;
12124;SDS011;6126;57.908;16.490;2023-01-26T06:44:21;0.38;;;0.38;;
12124;SDS011;6126;57.908;16.490;2023-01-26T06:46:47;0.70;;;0.60;;
12124;SDS011;6126;57.908;16.490;2023-01-26T06:49:12;0.90;;;0.73;;
12124;SDS011;6126;57.908;16.490;2023-01-26T06:51:51;0.80;;;0.68;;
12124;SDS011;6126;57.908;16.490;2023-01-26T06:54:34;1.17;;;0.60;;
12124;SDS011;6126;57.908;16.490;2023-01-26T06:57:00;1.05;;;0.60;;
12124;SDS011;6126;57.908;16.490;2023-01-26T06:59:26;0.55;;;0.50;;
12124;SDS011;6126;57.908;16.490;2023-01-26T07:01:52;1.60;;;0.75;;
12124;SDS011;6126;57.908;16.490;2023-01-26T07:04:18;1.00;;;0.40;;
12124;SDS011;6126;57.908;16.490;2023-01-26T07:06:43;1.00;;;0.52;;
12124;SDS011;6126;57.908;16.490;2023-01-26T07:09:09;0.75;;;0.60;;
12124;SDS011;6126;57.908;16.490;2023-01-26T07:11:36;1.08;;;0.90;;
12124;SDS011;6126;57.908;16.490;2023-01-26T07:14:02;1.13;;;0.80;;
12124;SDS011;6126;57.908;16.490;2023-01-26T07:16:28;0.50;;;0.50;;
12124;SDS011;6126;57.908;16.490;2023-01-26T07:18:54;1.05;;;0.68;;
12124;SDS011;6126;57.908;16.490;2023-01-26T07:21:20;1.30;;;0.50;;
12124;SDS011;6126;57.908;16.490;2023-01-26T07:23:47;1.00;;;0.75;;
12124;SDS011;6126;57.908;16.490;2023-01-26T07:26:14;0.70;;;0.60;;
12124;SDS011;6126;57.908;16.490;2023-01-26T07:28:40;2.10;;;0.38;;
12124;SDS011;6126;57.908;16.490;2023-01-26T07:31:06;1.00;;;0.77;;
12124;SDS011;6126;57.908;16.490;2023-01-26T07:33:34;0.55;;;0.55;;
12124;SDS011;6126;57.908;16.490;2023-01-26T07:36:00;0.80;;;0.70;;
12124;SDS011;6126;57.908;16.490;2023-01-26T07:38:26;2.65;;;0.85;;
12124;SDS011;6126;57.908;16.490;2023-01-26T07:40:55;0.60;;;0.60;;
12124;SDS011;6126;57.908;16.490;2023-01-26T07:43:22;0.73;;;0.70;;
12124;SDS011;6126;57.908;16.490;2023-01-26T07:45:49;0.88;;;0.70;;
12124;SDS011;6126;57.908;16.490;2023-01-26T07:48:19;0.68;;;0.68;;
12124;SDS011;6126;57.908;16.490;2023-01-26T07:50:48;0.93;;;0.75;;
12124;SDS011;6126;57.908;16.490;2023-01-26T07:53:15;0.80;;;0.77;;
12124;SDS011;6126;57.908;16.490;2023-01-26T07:55:46;1.08;;;0.80;;
12124;SDS011;6126;57.908;16.490;2023-01-26T07:58:13;1.58;;;0.70;;
12124;SDS011;6126;57.908;16.490;2023-01-26T08:00:39;0.57;;;0.57;;
12124;SDS011;6126;57.908;16.490;2023-01-26T08:03:05;0.55;;;0.55;;
12124;SDS011;6126;57.908;16.490;2023-01-26T08:05:32;0.70;;;0.70;;
12124;SDS011;6126;57.908;16.490;2023-01-26T08:07:59;0.50;;;0.45;;
12124;SDS011;6126;57.908;16.490;2023-01-26T08:10:26;0.60;;;0.60;;
12124;SDS011;6126;57.908;16.490;2023-01-26T08:12:55;0.90;;;0.70;;
12124;SDS011;6126;57.908;16.490;2023-01-26T08:15:26;1.27;;;0.60;;
12124;SDS011;6126;57.908;16.490;2023-01-26T08:17:52;0.60;;;0.40;;
12124;SDS011;6126;57.908;16.490;2023-01-26T08:20:19;0.63;;;0.60;;
12124;SDS011;6126;57.908;16.490;2023-01-26T08:22:45;0.93;;;0.50;;
12124;SDS011;6126;57.908;16.490;2023-01-26T08:25:11;1.13;;;0.63;;
12124;SDS011;6126;57.908;16.490;2023-01-26T08:27:37;1.15;;;0.77;;
12124;SDS011;6126;57.908;16.490;2023-01-26T08:30:03;2.03;;;0.82;;
12124;SDS011;6126;57.908;16.490;2023-01-26T08:32:30;0.80;;;0.68;;
12124;SDS011;6126;57.908;16.490;2023-01-26T08:34:56;1.10;;;0.60;;
12124;SDS011;6126;57.908;16.490;2023-01-26T08:37:22;0.75;;;0.60;;
12124;SDS011;6126;57.908;16.490;2023-01-26T08:39:48;0.75;;;0.73;;
12124;SDS011;6126;57.908;16.490;2023-01-26T08:42:14;2.47;;;0.50;;
12124;SDS011;6126;57.908;16.490;2023-01-26T08:44:40;1.08;;;0.65;;
12124;SDS011;6126;57.908;16.490;2023-01-26T08:47:06;1.75;;;0.90;;
12124;SDS011;6126;57.908;16.490;2023-01-26T08:49:31;0.95;;;0.47;;
12124;SDS011;6126;57.908;16.490;2023-01-26T08:51:57;0.75;;;0.47;;
12124;SDS011;6126;57.908;16.490;2023-01-26T08:54:23;0.60;;;0.60;;
12124;SDS011;6126;57.908;16.490;2023-01-26T08:56:49;2.08;;;0.60;;
12124;SDS011;6126;57.908;16.490;2023-01-26T08:59:15;0.50;;;0.50;;
12124;SDS011;6126;57.908;16.490;2023-01-26T09:01:40;1.77;;;0.90;;
12124;SDS011;6126;57.908;16.490;2023-01-26T09:04:06;0.82;;;0.60;;
12124;SDS011;6126;57.908;16.490;2023-01-26T09:06:32;0.95;;;0.73;;
12124;SDS011;6126;57.908;16.490;2023-01-26T09:08:58;1.55;;;0.65;;
12124;SDS011;6126;57.908;16.490;2023-01-26T09:11:24;0.93;;;0.70;;
12124;SDS011;6126;57.908;16.490;2023-01-26T09:13:50;1.17;;;0.80;;
12124;SDS011;6126;57.908;16.490;2023-01-26T09:16:22;1.27;;;0.82;;
12124;SDS011;6126;57.908;16.490;2023-01-26T09:18:49;1.20;;;0.88;;
12124;SDS011;6126;57.908;16.490;2023-01-26T09:21:16;1.17;;;0.80;;
12124;SDS011;6126;57.908;16.490;2023-01-26T09:23:42;1.85;;;0.63;;
12124;SDS011;6126;57.908;16.490;2023-01-26T09:26:08;1.48;;;0.90;;
12124;SDS011;6126;57.908;16.490;2023-01-26T09:28:34;1.13;;;1.05;;
12124;SDS011;6126;57.908;16.490;2023-01-26T09:31:04;1.40;;;0.88;;
12124;SDS011;6126;57.908;16.490;2023-01-26T09:33:33;3.72;;;1.23;;
12124;SDS011;6126;57.908;16.490;2023-01-26T09:36:03;1.25;;;1.15;;
12124;SDS011;6126;57.908;16.490;2023-01-26T09:38:31;1.60;;;0.98;;
12124;SDS011;6126;57.908;16.490;2023-01-26T09:43:42;2.15;;;1.15;;
12124;SDS011;6126;57.908;16.490;2023-01-26T09:49:22;4.45;;;1.45;;
12124;SDS011;6126;57.908;16.490;2023-01-26T09:52:32;2.08;;;1.45;;
12124;SDS011;6126;57.908;16.490;2023-01-26T09:55:11;1.20;;;1.10;;
12124;SDS011;6126;57.908;16.490;2023-01-26T09:57:46;1.80;;;1.08;;
12124;SDS011;6126;57.908;16.490;2023-01-26T10:00:48;2.67;;;1.33;;
12124;SDS011;6126;57.908;16.490;2023-01-26T10:06:10;1.60;;;1.20;;
12124;SDS011;6126;57.908;16.490;2023-01-26T10:08:52;0.95;;;0.88;;
12124;SDS011;6126;57.908;16.490;2023-01-26T10:11:28;0.88;;;0.60;;
12124;SDS011;6126;57.908;16.490;2023-01-26T10:14:18;0.80;;;0.68;;
12124;SDS011;6126;57.908;16.490;2023-01-26T10:17:01;0.60;;;0.60;;
12124;SDS011;6126;57.908;16.490;2023-01-26T10:22:49;0.95;;;0.52;;
12124;SDS011;6126;57.908;16.490;2023-01-26T10:28:17;0.68;;;0.68;;
12124;SDS011;6126;57.908;16.490;2023-01-26T10:30:48;1.23;;;0.77;;
12124;SDS011;6126;57.908;16.490;2023-01-26T10:33:17;2.13;;;0.60;;
12124;SDS011;6126;57.908;16.490;2023-01-26T10:35:49;0.50;;;0.50;;
12124;SDS011;6126;57.908;16.490;2023-01-26T10:43:50;0.50;;;0.40;;
12124;SDS011;6126;57.908;16.490;2023-01-26T10:46:40;1.23;;;0.32;;
12124;SDS011;6126;57.908;16.490;2023-01-26T10:51:33;0.73;;;0.60;;
12124;SDS011;6126;57.908;16.490;2023-01-26T10:56:54;0.43;;;0.43;;
12124;SDS011;6126;57.908;16.490;2023-01-26T10:59:31;0.60;;;0.40;;
12124;SDS011;6126;57.908;16.490;2023-01-26T11:04:36;0.40;;;0.40;;
12124;SDS011;6126;57.908;16.490;2023-01-26T11:07:39;0.32;;;0.32;;
12124;SDS011;6126;57.908;16.490;2023-01-26T11:15:44;0.22;;;0.22;;
12124;SDS011;6126;57.908;16.490;2023-01-26T11:21:16;0.50;;;0.30;;
12124;SDS011;6126;57.908;16.490;2023-01-26T11:24:18;0.70;;;0.40;;
12124;SDS011;6126;57.908;16.490;2023-01-26T11:27:08;0.30;;;0.30;;
12124;SDS011;6126;57.908;16.490;2023-01-26T11:36:19;0.50;;;0.50;;
12124;SDS011;6126;57.908;16.490;2023-01-26T11:39:18;0.30;;;0.30;;
12124;SDS011;6126;57.908;16.490;2023-01-26T11:42:06;1.85;;;0.60;;
12124;SDS011;6126;57.908;16.490;2023-01-26T11:58:34;0.40;;;0.40;;
12124;SDS011;6126;57.908;16.490;2023-01-26T12:01:28;0.30;;;0.30;;
12124;SDS011;6126;57.908;16.490;2023-01-26T12:04:17;0.40;;;0.40;;
12124;SDS011;6126;57.908;16.490;2023-01-26T12:06:52;0.60;;;0.60;;
12124;SDS011;6126;57.908;16.490;2023-01-26T12:09:40;0.50;;;0.45;;
12124;SDS011;6126;57.908;16.490;2023-01-26T12:12:16;0.52;;;0.40;;
12124;SDS011;6126;57.908;16.490;2023-01-26T12:15:26;0.60;;;0.40;;
12124;SDS011;6126;57.908;16.490;2023-01-26T12:17:59;1.38;;;0.40;;
12124;SDS011;6126;57.908;16.490;2023-01-26T12:20:53;0.35;;;0.30;;
12124;SDS011;6126;57.908;16.490;2023-01-26T12:26:27;0.85;;;0.47;;
12124;SDS011;6126;57.908;16.490;2023-01-26T12:32:12;0.85;;;0.32;;
12124;SDS011;6126;57.908;16.490;2023-01-26T12:34:40;0.30;;;0.30;;
12124;SDS011;6126;57.908;16.490;2023-01-26T12:45:20;0.70;;;0.50;;
12124;SDS011;6126;57.908;16.490;2023-01-26T12:48:10;0.40;;;0.40;;
12124;SDS011;6126;57.908;16.490;2023-01-26T12:50:54;0.43;;;0.40;;
12124;SDS011;6126;57.908;16.490;2023-01-26T12:54:03;0.28;;;0.28;;
12124;SDS011;6126;57.908;16.490;2023-01-26T12:59:20;0.20;;;0.20;;
12124;SDS011;6126;57.908;16.490;2023-01-26T13:04:59;0.30;;;0.30;;
12124;SDS011;6126;57.908;16.490;2023-01-26T13:07:33;0.20;;;0.20;;
12124;SDS011;6126;57.908;16.490;2023-01-26T13:10:18;0.30;;;0.30;;
12124;SDS011;6126;57.908;16.490;2023-01-26T13:18:50;0.22;;;0.20;;
12124;SDS011;6126;57.908;16.490;2023-01-26T13:26:55;1.27;;;0.38;;
12124;SDS011;6126;57.908;16.490;2023-01-26T13:31:49;0.20;;;0.20;;
12124;SDS011;6126;57.908;16.490;2023-01-26T13:37:25;0.20;;;0.20;;
12124;SDS011;6126;57.908;16.490;2023-01-26T13:40:21;0.22;;;0.22;;
12124;SDS011;6126;57.908;16.490;2023-01-26T13:43:07;0.20;;;0.20;;
12124;SDS011;6126;57.908;16.490;2023-01-26T13:45:44;0.73;;;0.40;;
12124;SDS011;6126;57.908;16.490;2023-01-26T13:48:55;0.47;;;0.38;;
12124;SDS011;6126;57.908;16.490;2023-01-26T13:51:25;0.20;;;0.20;;
12124;SDS011;6126;57.908;16.490;2023-01-26T13:53:55;1.15;;;0.47;;
12124;SDS011;6126;57.908;16.490;2023-01-26T13:59:17;6.43;;;0.30;;
12124;SDS011;6126;57.908;16.490;2023-01-26T14:01:46;2.08;;;0.57;;
12124;SDS011;6126;57.908;16.490;2023-01-26T14:04:15;0.22;;;0.22;;
12124;SDS011;6126;57.908;16.490;2023-01-26T14:06:51;0.20;;;0.20;;
12124;SDS011;6126;57.908;16.490;2023-01-26T14:09:39;1.75;;;0.55;;
12124;SDS011;6126;57.908;16.490;2023-01-26T14:12:17;0.30;;;0.30;;
12124;SDS011;6126;57.908;16.490;2023-01-26T14:14:58;1.65;;;0.30;;
12124;SDS011;6126;57.908;16.490;2023-01-26T14:17:35;1.83;;;0.60;;
12124;SDS011;6126;57.908;16.490;2023-01-26T14:20:20;0.60;;;0.32;;
12124;SDS011;6126;57.908;16.490;2023-01-26T14:23:29;0.95;;;0.30;;
12124;SDS011;6126;57.908;16.490;2023-01-26T14:26:03;0.30;;;0.20;;
12124;SDS011;6126;57.908;16.490;2023-01-26T14:28:45;0.20;;;0.20;;
12124;SDS011;6126;57.908;16.490;2023-01-26T14:31:14;0.30;;;0.30;;
12124;SDS011;6126;57.908;16.490;2023-01-26T14:33:47;2.35;;;0.32;;
12124;SDS011;6126;57.908;16.490;2023-01-26T14:36:22;1.48;;;0.30;;
12124;SDS011;6126;57.908;16.490;2023-01-26T14:38:56;0.63;;;0.47;;
12124;SDS011;6126;57.908;16.490;2023-01-26T14:43:56;0.20;;;0.20;;
12124;SDS011;6126;57.908;16.490;2023-01-26T14:49:15;0.47;;;0.38;;
12124;SDS011;6126;57.908;16.490;2023-01-26T14:52:28;0.38;;;0.38;;
12124;SDS011;6126;57.908;16.490;2023-01-26T14:55:02;2.83;;;0.52;;
12124;SDS011;6126;57.908;16.490;2023-01-26T14:57:32;0.57;;;0.30;;
12124;SDS011;6126;57.908;16.490;2023-01-26T14:59:59;0.32;;;0.30;;
12124;SDS011;6126;57.908;16.490;2023-01-26T15:02:34;0.75;;;0.63;;
12124;SDS011;6126;57.908;16.490;2023-01-26T15:05:08;0.38;;;0.38;;
12124;SDS011;6126;57.908;16.490;2023-01-26T15:07:44;0.82;;;0.20;;
12124;SDS011;6126;57.908;16.490;2023-01-26T15:10:52;0.38;;;0.38;;
12124;SDS011;6126;57.908;16.490;2023-01-26T15:13:48;0.20;;;0.20;;
12124;SDS011;6126;57.908;16.490;2023-01-26T15:16:22;0.38;;;0.30;;
12124;SDS011;6126;57.908;16.490;2023-01-26T15:19:00;0.20;;;0.20;;
12124;SDS011;6126;57.908;16.490;2023-01-26T15:21:39;0.30;;;0.30;;
12124;SDS011;6126;57.908;16.490;2023-01-26T15:24:11;0.30;;;0.25;;
12124;SDS011;6126;57.908;16.490;2023-01-26T15:26:39;1.02;;;0.30;;
12124;SDS011;6126;57.908;16.490;2023-01-26T15:31:56;0.73;;;0.50;;
12124;SDS011;6126;57.908;16.490;2023-01-26T15:34:38;0.38;;;0.30;;
12124;SDS011;6126;57.908;16.490;2023-01-26T15:39:56;0.40;;;0.35;;
12124;SDS011;6126;57.908;16.490;2023-01-26T15:42:23;1.40;;;0.30;;
12124;SDS011;6126;57.908;16.490;2023-01-26T15:44:52;0.38;;;0.30;;
12124;SDS011;6126;57.908;16.490;2023-01-26T15:47:19;0.30;;;0.30;;
12124;SDS011;6126;57.908;16.490;2023-01-26T15:49:45;1.77;;;0.35;;
12124;SDS011;6126;57.908;16.490;2023-01-26T15:52:11;0.82;;;0.57;;
12124;SDS011;6126;57.908;16.490;2023-01-26T15:54:42;0.30;;;0.30;;
12124;SDS011;6126;57.908;16.490;2023-01-26T15:57:09;1.05;;;0.50;;
12124;SDS011;6126;57.908;16.490;2023-01-26T15:59:36;0.22;;;0.22;;
12124;SDS011;6126;57.908;16.490;2023-01-26T16:02:03;2.53;;;0.40;;
12124;SDS011;6126;57.908;16.490;2023-01-26T16:04:37;1.13;;;0.20;;
12124;SDS011;6126;57.908;16.490;2023-01-26T16:07:04;0.65;;;0.30;;
12124;SDS011;6126;57.908;16.490;2023-01-26T16:09:39;0.28;;;0.28;;
12124;SDS011;6126;57.908;16.490;2023-01-26T16:12:15;0.38;;;0.38;;
12124;SDS011;6126;57.908;16.490;2023-01-26T16:14:42;0.85;;;0.32;;
12124;SDS011;6126;57.908;16.490;2023-01-26T16:17:11;0.73;;;0.38;;
12124;SDS011;6126;57.908;16.490;2023-01-26T16:19:39;2.03;;;0.30;;
12124;SDS011;6126;57.908;16.490;2023-01-26T16:22:08;0.45;;;0.40;;
12124;SDS011;6126;57.908;16.490;2023-01-26T16:24:35;0.30;;;0.30;;
12124;SDS011;6126;57.908;16.490;2023-01-26T16:27:02;1.02;;;0.40;;
12124;SDS011;6126;57.908;16.490;2023-01-26T16:29:29;0.40;;;0.40;;
12124;SDS011;6126;57.908;16.490;2023-01-26T16:31:56;2.63;;;0.47;;
12124;SDS011;6126;57.908;16.490;2023-01-26T16:34:24;0.45;;;0.38;;
12124;SDS011;6126;57.908;16.490;2023-01-26T16:36:50;0.35;;;0.30;;
12124;SDS011;6126;57.908;16.490;2023-01-26T16:39:16;0.30;;;0.30;;
12124;SDS011;6126;57.908;16.490;2023-01-26T16:41:42;1.27;;;0.43;;
12124;SDS011;6126;57.908;16.490;2023-01-26T16:44:12;0.55;;;0.30;;
12124;SDS011;6126;57.908;16.490;2023-01-26T16:46:43;0.52;;;0.35;;
12124;SDS011;6126;57.908;16.490;2023-01-26T16:49:12;0.82;;;0.40;;
12124;SDS011;6126;57.908;16.490;2023-01-26T16:51:42;2.45;;;0.40;;
12124;SDS011;6126;57.908;16.490;2023-01-26T16:54:09;0.45;;;0.35;;
12124;SDS011;6126;57.908;16.490;2023-01-26T16:56:36;1.08;;;0.40;;
12124;SDS011;6126;57.908;16.490;2023-01-26T16:59:02;1.48;;;0.75;;
12124;SDS011;6126;57.908;16.490;2023-01-26T17:01:30;0.47;;;0.32;;
12124;SDS011;6126;57.908;16.490;2023-01-26T17:04:01;0.47;;;0.30;;